sensor_id;sensor_type;location;lat;lon;timestamp;temperature;humidity
21712;DHT22;11017;53.552;9.910;2023-04-24T00:01:28;14.00;99.90
21712;DHT22;11017;53.552;9.910;2023-04-24T00:03:55;14.10;99.90
21712;DHT22;11017;53.552;9.910;2023-04-24T00:06:25;14.30;99.90
21712;DHT22;11017;53.552;9.910;2023-04-24T00:08:58;14.30;99.90
21712;DHT22;11017;53.552;9.910;2023-04-24T00:11:25;14.20;99.90
21712;DHT22;11017;53.552;9.910;2023-04-24T00:13:54;14.20;99.90
21712;DHT22;11017;53.552;9.910;2023-04-24T00:16:21;14.20;99.90
21712;DHT22;11017;53.552;9.910;2023-04-24T00:18:48;14.20;99.90
21712;DHT22;11017;53.552;9.910;2023-04-24T00:21:14;14.20;99.90
21712;DHT22;11017;53.552;9.910;2023-04-24T00:23:43;13.90;99.90
21712;DHT22;11017;53.552;9.910;2023-04-24T00:26:10;13.90;99.90
21712;DHT22;11017;53.552;9.910;2023-04-24T00:28:37;14.00;99.90
21712;DHT22;11017;53.552;9.910;2023-04-24T00:31:05;14.10;99.90
21712;DHT22;11017;53.552;9.910;2023-04-24T00:33:32;14.00;99.90
21712;DHT22;11017;53.552;9.910;2023-04-24T00:35:59;14.10;99.90
21712;DHT22;11017;53.552;9.910;2023-04-24T00:38:26;14.10;99.90
21712;DHT22;11017;53.552;9.910;2023-04-24T00:40:53;14.00;99.90
21712;DHT22;11017;53.552;9.910;2023-04-24T00:43:20;13.90;99.90
21712;DHT22;11017;53.552;9.910;2023-04-24T00:45:47;13.90;99.90
21712;DHT22;11017;53.552;9.910;2023-04-24T00:48:16;13.90;99.90
21712;DHT22;11017;53.552;9.910;2023-04-24T00:50:43;14.00;99.90
21712;DHT22;11017;53.552;9.910;2023-04-24T00:53:10;13.90;99.90
21712;DHT22;11017;53.552;9.910;2023-04-24T00:55:37;13.70;99.90
21712;DHT22;11017;53.552;9.910;2023-04-24T00:58:04;13.60;99.90
21712;DHT22;11017;53.552;9.910;2023-04-24T01:00:31;13.60;99.90
21712;DHT22;11017;53.552;9.910;2023-04-24T01:03:01;13.60;99.90
21712;DHT22;11017;53.552;9.910;2023-04-24T01:05:32;13.70;99.90
21712;DHT22;11017;53.552;9.910;2023-04-24T01:08:01;13.60;99.90
21712;DHT22;11017;53.552;9.910;2023-04-24T01:10:29;13.50;99.90
21712;DHT22;11017;53.552;9.910;2023-04-24T01:12:58;13.50;99.90
21712;DHT22;11017;53.552;9.910;2023-04-24T01:15:25;13.30;99.90
21712;DHT22;11017;53.552;9.910;2023-04-24T01:17:52;13.40;99.90
21712;DHT22;11017;53.552;9.910;2023-04-24T01:20:19;13.30;99.90
21712;DHT22;11017;53.552;9.910;2023-04-24T01:22:47;13.30;99.90
21712;DHT22;11017;53.552;9.910;2023-04-24T01:25:15;13.50;99.90
21712;DHT22;11017;53.552;9.910;2023-04-24T01:27:42;13.50;99.90
21712;DHT22;11017;53.552;9.910;2023-04-24T01:30:10;13.50;99.90
21712;DHT22;11017;53.552;9.910;2023-04-24T01:32:37;13.50;99.90
21712;DHT22;11017;53.552;9.910;2023-04-24T01:35:06;13.50;99.90
21712;DHT22;11017;53.552;9.910;2023-04-24T01:37:33;13.60;99.90
21712;DHT22;11017;53.552;9.910;2023-04-24T01:40:04;13.50;99.90
21712;DHT22;11017;53.552;9.910;2023-04-24T01:42:32;13.50;99.90
21712;DHT22;11017;53.552;9.910;2023-04-24T01:44:59;13.40;99.90
21712;DHT22;11017;53.552;9.910;2023-04-24T01:47:27;13.40;99.90
21712;DHT22;11017;53.552;9.910;2023-04-24T01:49:55;13.40;99.90
21712;DHT22;11017;53.552;9.910;2023-04-24T01:52:22;13.40;99.90
21712;DHT22;11017;53.552;9.910;2023-04-24T01:54:48;13.40;99.90
21712;DHT22;11017;53.552;9.910;2023-04-24T01:57:17;13.40;99.90
21712;DHT22;11017;53.552;9.910;2023-04-24T01:59:44;13.40;99.90
21712;DHT22;11017;53.552;9.910;2023-04-24T02:02:10;13.40;99.90
21712;DHT22;11017;53.552;9.910;2023-04-24T02:04:38;13.20;99.90
21712;DHT22;11017;53.552;9.910;2023-04-24T02:07:05;13.20;99.90
21712;DHT22;11017;53.552;9.910;2023-04-24T02:09:32;13.20;99.90
21712;DHT22;11017;53.552;9.910;2023-04-24T02:11:59;13.30;99.90
21712;DHT22;11017;53.552;9.910;2023-04-24T02:14:27;13.30;99.90
21712;DHT22;11017;53.552;9.910;2023-04-24T02:16:54;13.30;99.90
21712;DHT22;11017;53.552;9.910;2023-04-24T02:19:21;13.20;99.90
21712;DHT22;11017;53.552;9.910;2023-04-24T02:21:48;13.00;99.90
21712;DHT22;11017;53.552;9.910;2023-04-24T02:24:15;12.90;99.90
21712;DHT22;11017;53.552;9.910;2023-04-24T02:26:41;13.00;99.90
21712;DHT22;11017;53.552;9.910;2023-04-24T02:29:08;13.00;99.90
21712;DHT22;11017;53.552;9.910;2023-04-24T02:31:37;13.00;99.90
21712;DHT22;11017;53.552;9.910;2023-04-24T02:34:04;13.10;99.90
21712;DHT22;11017;53.552;9.910;2023-04-24T02:36:31;13.00;99.90
21712;DHT22;11017;53.552;9.910;2023-04-24T02:38:58;13.00;99.90
21712;DHT22;11017;53.552;9.910;2023-04-24T02:41:25;13.00;99.90
21712;DHT22;11017;53.552;9.910;2023-04-24T02:43:56;13.10;99.90
21712;DHT22;11017;53.552;9.910;2023-04-24T02:46:23;13.00;99.90
21712;DHT22;11017;53.552;9.910;2023-04-24T02:48:51;12.90;99.90
21712;DHT22;11017;53.552;9.910;2023-04-24T02:51:18;12.80;99.90
21712;DHT22;11017;53.552;9.910;2023-04-24T02:53:45;12.70;99.90
21712;DHT22;11017;53.552;9.910;2023-04-24T02:56:12;12.80;99.90
21712;DHT22;11017;53.552;9.910;2023-04-24T02:58:39;12.60;99.90
21712;DHT22;11017;53.552;9.910;2023-04-24T03:01:07;12.50;99.90
21712;DHT22;11017;53.552;9.910;2023-04-24T03:03:35;12.60;99.90
21712;DHT22;11017;53.552;9.910;2023-04-24T03:06:04;12.40;99.90
21712;DHT22;11017;53.552;9.910;2023-04-24T03:08:31;12.50;99.90
21712;DHT22;11017;53.552;9.910;2023-04-24T03:10:58;12.50;99.90
21712;DHT22;11017;53.552;9.910;2023-04-24T03:13:25;12.60;99.90
21712;DHT22;11017;53.552;9.910;2023-04-24T03:15:52;12.60;99.90
21712;DHT22;11017;53.552;9.910;2023-04-24T03:18:19;12.60;99.90
21712;DHT22;11017;53.552;9.910;2023-04-24T03:20:46;12.50;99.90
21712;DHT22;11017;53.552;9.910;2023-04-24T03:23:14;12.50;99.90
21712;DHT22;11017;53.552;9.910;2023-04-24T03:25:41;12.50;99.90
21712;DHT22;11017;53.552;9.910;2023-04-24T03:28:09;12.50;99.90
21712;DHT22;11017;53.552;9.910;2023-04-24T03:30:36;12.40;99.90
21712;DHT22;11017;53.552;9.910;2023-04-24T03:33:03;12.40;99.90
21712;DHT22;11017;53.552;9.910;2023-04-24T03:35:30;12.30;99.90
21712;DHT22;11017;53.552;9.910;2023-04-24T03:37:56;12.20;99.90
21712;DHT22;11017;53.552;9.910;2023-04-24T03:40:25;12.00;99.90
21712;DHT22;11017;53.552;9.910;2023-04-24T03:42:51;12.20;99.90
21712;DHT22;11017;53.552;9.910;2023-04-24T03:45:19;12.10;99.90
21712;DHT22;11017;53.552;9.910;2023-04-24T03:47:46;12.10;99.90
21712;DHT22;11017;53.552;9.910;2023-04-24T03:50:12;12.10;99.90
21712;DHT22;11017;53.552;9.910;2023-04-24T03:52:40;12.10;99.90
21712;DHT22;11017;53.552;9.910;2023-04-24T03:55:07;12.00;99.90
21712;DHT22;11017;53.552;9.910;2023-04-24T03:57:36;12.00;99.90
21712;DHT22;11017;53.552;9.910;2023-04-24T04:00:03;12.10;99.90
21712;DHT22;11017;53.552;9.910;2023-04-24T04:02:31;12.00;99.90
21712;DHT22;11017;53.552;9.910;2023-04-24T04:04:58;12.00;99.90
21712;DHT22;11017;53.552;9.910;2023-04-24T04:07:25;11.90;99.90
21712;DHT22;11017;53.552;9.910;2023-04-24T04:09:52;11.90;99.90
21712;DHT22;11017;53.552;9.910;2023-04-24T04:12:19;11.90;99.90
21712;DHT22;11017;53.552;9.910;2023-04-24T04:14:47;11.90;99.90
21712;DHT22;11017;53.552;9.910;2023-04-24T04:17:14;12.00;99.90
21712;DHT22;11017;53.552;9.910;2023-04-24T04:19:41;12.00;99.90
21712;DHT22;11017;53.552;9.910;2023-04-24T04:22:07;11.90;99.90
21712;DHT22;11017;53.552;9.910;2023-04-24T04:24:34;11.80;99.90
21712;DHT22;11017;53.552;9.910;2023-04-24T04:27:03;11.90;99.90
21712;DHT22;11017;53.552;9.910;2023-04-24T04:29:30;12.00;99.90
21712;DHT22;11017;53.552;9.910;2023-04-24T04:31:59;12.00;99.90
21712;DHT22;11017;53.552;9.910;2023-04-24T04:34:27;12.10;99.90
21712;DHT22;11017;53.552;9.910;2023-04-24T04:36:54;12.00;99.90
21712;DHT22;11017;53.552;9.910;2023-04-24T04:39:21;11.90;99.90
21712;DHT22;11017;53.552;9.910;2023-04-24T04:41:48;12.00;99.90
21712;DHT22;11017;53.552;9.910;2023-04-24T04:44:15;12.10;99.90
21712;DHT22;11017;53.552;9.910;2023-04-24T04:46:42;12.20;99.90
21712;DHT22;11017;53.552;9.910;2023-04-24T04:49:11;12.20;99.90
21712;DHT22;11017;53.552;9.910;2023-04-24T04:51:38;12.30;99.90
21712;DHT22;11017;53.552;9.910;2023-04-24T04:54:05;12.30;99.90
21712;DHT22;11017;53.552;9.910;2023-04-24T04:56:32;12.40;99.90
21712;DHT22;11017;53.552;9.910;2023-04-24T04:58:59;12.20;99.90
21712;DHT22;11017;53.552;9.910;2023-04-24T05:01:26;12.10;99.90
21712;DHT22;11017;53.552;9.910;2023-04-24T05:03:53;12.10;99.90
21712;DHT22;11017;53.552;9.910;2023-04-24T05:06:22;12.20;99.90
21712;DHT22;11017;53.552;9.910;2023-04-24T05:08:49;12.30;99.90
21712;DHT22;11017;53.552;9.910;2023-04-24T05:11:16;12.10;99.90
21712;DHT22;11017;53.552;9.910;2023-04-24T05:13:43;12.10;99.90
21712;DHT22;11017;53.552;9.910;2023-04-24T05:16:10;12.20;99.90
21712;DHT22;11017;53.552;9.910;2023-04-24T05:18:37;12.30;99.90
21712;DHT22;11017;53.552;9.910;2023-04-24T05:21:04;12.30;99.90
21712;DHT22;11017;53.552;9.910;2023-04-24T05:23:32;12.40;99.90
21712;DHT22;11017;53.552;9.910;2023-04-24T05:25:59;12.40;99.90
21712;DHT22;11017;53.552;9.910;2023-04-24T05:28:26;12.40;99.90
21712;DHT22;11017;53.552;9.910;2023-04-24T05:30:54;12.50;99.90
21712;DHT22;11017;53.552;9.910;2023-04-24T05:33:21;12.40;99.90
21712;DHT22;11017;53.552;9.910;2023-04-24T05:35:48;12.40;99.90
21712;DHT22;11017;53.552;9.910;2023-04-24T05:38:15;12.50;99.90
21712;DHT22;11017;53.552;9.910;2023-04-24T05:40:44;12.50;99.90
21712;DHT22;11017;53.552;9.910;2023-04-24T05:43:12;12.60;99.90
21712;DHT22;11017;53.552;9.910;2023-04-24T05:45:39;12.60;99.90
21712;DHT22;11017;53.552;9.910;2023-04-24T05:48:06;12.50;99.90
21712;DHT22;11017;53.552;9.910;2023-04-24T05:50:32;12.30;99.90
21712;DHT22;11017;53.552;9.910;2023-04-24T05:52:59;12.50;99.90
21712;DHT22;11017;53.552;9.910;2023-04-24T05:55:27;12.60;99.90
21712;DHT22;11017;53.552;9.910;2023-04-24T05:57:56;12.60;99.90
21712;DHT22;11017;53.552;9.910;2023-04-24T06:00:24;12.50;99.90
21712;DHT22;11017;53.552;9.910;2023-04-24T06:02:51;12.50;99.90
21712;DHT22;11017;53.552;9.910;2023-04-24T06:05:18;12.50;99.90
21712;DHT22;11017;53.552;9.910;2023-04-24T06:07:45;12.50;99.90
21712;DHT22;11017;53.552;9.910;2023-04-24T06:10:12;12.40;99.90
21712;DHT22;11017;53.552;9.910;2023-04-24T06:12:39;12.60;99.90
21712;DHT22;11017;53.552;9.910;2023-04-24T06:15:08;12.60;99.90
21712;DHT22;11017;53.552;9.910;2023-04-24T06:17:36;12.70;99.90
21712;DHT22;11017;53.552;9.910;2023-04-24T06:20:03;12.70;99.90
21712;DHT22;11017;53.552;9.910;2023-04-24T06:22:31;12.80;99.90
21712;DHT22;11017;53.552;9.910;2023-04-24T06:24:58;12.80;99.90
21712;DHT22;11017;53.552;9.910;2023-04-24T06:27:25;12.80;99.90
21712;DHT22;11017;53.552;9.910;2023-04-24T06:29:52;12.80;99.90
21712;DHT22;11017;53.552;9.910;2023-04-24T06:32:22;12.80;99.90
21712;DHT22;11017;53.552;9.910;2023-04-24T06:34:51;12.80;99.90
21712;DHT22;11017;53.552;9.910;2023-04-24T06:37:18;12.90;99.90
21712;DHT22;11017;53.552;9.910;2023-04-24T06:39:46;13.00;99.90
21712;DHT22;11017;53.552;9.910;2023-04-24T06:42:13;13.10;99.90
21712;DHT22;11017;53.552;9.910;2023-04-24T06:44:39;13.10;99.90
21712;DHT22;11017;53.552;9.910;2023-04-24T06:47:07;13.30;99.90
21712;DHT22;11017;53.552;9.910;2023-04-24T06:49:36;13.30;99.90
21712;DHT22;11017;53.552;9.910;2023-04-24T06:52:04;13.40;99.90
21712;DHT22;11017;53.552;9.910;2023-04-24T06:54:32;13.40;99.90
21712;DHT22;11017;53.552;9.910;2023-04-24T06:56:59;13.30;99.90
21712;DHT22;11017;53.552;9.910;2023-04-24T06:59:28;13.40;99.90
21712;DHT22;11017;53.552;9.910;2023-04-24T07:01:55;13.40;99.90
21712;DHT22;11017;53.552;9.910;2023-04-24T07:04:22;13.50;99.90
21712;DHT22;11017;53.552;9.910;2023-04-24T07:06:52;13.50;99.90
21712;DHT22;11017;53.552;9.910;2023-04-24T07:09:21;13.50;99.90
21712;DHT22;11017;53.552;9.910;2023-04-24T07:11:49;13.60;99.90
21712;DHT22;11017;53.552;9.910;2023-04-24T07:14:17;13.60;99.90
21712;DHT22;11017;53.552;9.910;2023-04-24T07:16:44;13.90;99.90
21712;DHT22;11017;53.552;9.910;2023-04-24T07:19:11;14.10;99.90
21712;DHT22;11017;53.552;9.910;2023-04-24T07:21:38;14.20;99.90
21712;DHT22;11017;53.552;9.910;2023-04-24T07:24:06;14.10;99.90
21712;DHT22;11017;53.552;9.910;2023-04-24T07:26:37;13.80;99.90
21712;DHT22;11017;53.552;9.910;2023-04-24T07:29:06;13.50;99.90
21712;DHT22;11017;53.552;9.910;2023-04-24T07:31:33;13.50;99.90
21712;DHT22;11017;53.552;9.910;2023-04-24T07:34:00;13.50;99.90
21712;DHT22;11017;53.552;9.910;2023-04-24T07:36:27;13.40;99.90
21712;DHT22;11017;53.552;9.910;2023-04-24T07:38:55;13.50;99.90
21712;DHT22;11017;53.552;9.910;2023-04-24T07:41:24;13.50;99.90
21712;DHT22;11017;53.552;9.910;2023-04-24T07:43:53;13.60;99.90
21712;DHT22;11017;53.552;9.910;2023-04-24T07:46:20;13.70;99.90
21712;DHT22;11017;53.552;9.910;2023-04-24T07:48:47;13.80;99.90
21712;DHT22;11017;53.552;9.910;2023-04-24T07:51:14;14.30;99.90
21712;DHT22;11017;53.552;9.910;2023-04-24T07:53:41;14.60;99.90
21712;DHT22;11017;53.552;9.910;2023-04-24T07:56:08;14.60;99.90
21712;DHT22;11017;53.552;9.910;2023-04-24T07:58:36;14.40;99.90
21712;DHT22;11017;53.552;9.910;2023-04-24T08:01:03;14.20;99.90
21712;DHT22;11017;53.552;9.910;2023-04-24T08:03:30;14.50;99.90
21712;DHT22;11017;53.552;9.910;2023-04-24T08:05:57;14.30;99.90
21712;DHT22;11017;53.552;9.910;2023-04-24T08:08:24;14.20;99.90
21712;DHT22;11017;53.552;9.910;2023-04-24T08:10:51;14.30;99.90
21712;DHT22;11017;53.552;9.910;2023-04-24T08:13:18;14.30;99.90
21712;DHT22;11017;53.552;9.910;2023-04-24T08:15:47;14.20;99.90
21712;DHT22;11017;53.552;9.910;2023-04-24T08:18:14;14.20;99.90
21712;DHT22;11017;53.552;9.910;2023-04-24T08:20:41;14.30;99.90
21712;DHT22;11017;53.552;9.910;2023-04-24T08:23:08;14.40;99.90
21712;DHT22;11017;53.552;9.910;2023-04-24T08:25:38;14.00;99.90
21712;DHT22;11017;53.552;9.910;2023-04-24T08:28:06;14.20;99.90
21712;DHT22;11017;53.552;9.910;2023-04-24T08:30:33;14.30;99.90
21712;DHT22;11017;53.552;9.910;2023-04-24T08:33:01;14.70;99.90
21712;DHT22;11017;53.552;9.910;2023-04-24T08:35:28;14.90;99.90
21712;DHT22;11017;53.552;9.910;2023-04-24T08:37:55;14.70;99.90
21712;DHT22;11017;53.552;9.910;2023-04-24T08:40:28;14.50;99.90
21712;DHT22;11017;53.552;9.910;2023-04-24T08:42:59;14.20;99.90
21712;DHT22;11017;53.552;9.910;2023-04-24T08:45:26;14.20;99.90
21712;DHT22;11017;53.552;9.910;2023-04-24T08:47:53;14.10;99.90
21712;DHT22;11017;53.552;9.910;2023-04-24T08:50:22;14.30;99.90
21712;DHT22;11017;53.552;9.910;2023-04-24T08:52:51;14.00;99.90
21712;DHT22;11017;53.552;9.910;2023-04-24T08:55:19;13.90;99.90
21712;DHT22;11017;53.552;9.910;2023-04-24T08:57:50;14.20;99.90
21712;DHT22;11017;53.552;9.910;2023-04-24T09:00:20;14.50;99.90
21712;DHT22;11017;53.552;9.910;2023-04-24T09:02:49;14.60;99.90
21712;DHT22;11017;53.552;9.910;2023-04-24T09:05:16;14.90;99.90
21712;DHT22;11017;53.552;9.910;2023-04-24T09:07:49;16.00;99.90
21712;DHT22;11017;53.552;9.910;2023-04-24T09:10:20;16.10;99.90
21712;DHT22;11017;53.552;9.910;2023-04-24T09:12:48;15.60;99.90
21712;DHT22;11017;53.552;9.910;2023-04-24T09:15:16;15.60;99.90
21712;DHT22;11017;53.552;9.910;2023-04-24T09:17:43;15.40;99.90
21712;DHT22;11017;53.552;9.910;2023-04-24T09:20:11;15.00;99.90
21712;DHT22;11017;53.552;9.910;2023-04-24T09:22:37;14.90;99.90
21712;DHT22;11017;53.552;9.910;2023-04-24T09:25:07;14.80;99.90
21712;DHT22;11017;53.552;9.910;2023-04-24T09:27:35;14.80;99.90
21712;DHT22;11017;53.552;9.910;2023-04-24T09:30:02;15.00;99.90
21712;DHT22;11017;53.552;9.910;2023-04-24T09:32:29;15.00;99.90
21712;DHT22;11017;53.552;9.910;2023-04-24T09:35:10;14.80;99.90
21712;DHT22;11017;53.552;9.910;2023-04-24T09:37:38;14.50;99.90
21712;DHT22;11017;53.552;9.910;2023-04-24T09:40:16;14.40;99.90
21712;DHT22;11017;53.552;9.910;2023-04-24T09:42:51;14.30;99.90
21712;DHT22;11017;53.552;9.910;2023-04-24T09:45:18;14.20;99.90
21712;DHT22;11017;53.552;9.910;2023-04-24T09:47:45;13.90;99.90
21712;DHT22;11017;53.552;9.910;2023-04-24T09:50:14;13.90;99.90
21712;DHT22;11017;53.552;9.910;2023-04-24T09:52:42;13.80;99.90
21712;DHT22;11017;53.552;9.910;2023-04-24T09:55:19;13.80;99.90
21712;DHT22;11017;53.552;9.910;2023-04-24T09:57:50;13.70;99.90
21712;DHT22;11017;53.552;9.910;2023-04-24T10:00:20;13.80;99.90
21712;DHT22;11017;53.552;9.910;2023-04-24T10:02:54;13.90;99.90
21712;DHT22;11017;53.552;9.910;2023-04-24T10:05:24;13.80;99.90
21712;DHT22;11017;53.552;9.910;2023-04-24T10:07:51;13.80;99.90
21712;DHT22;11017;53.552;9.910;2023-04-24T10:10:20;14.00;99.90
21712;DHT22;11017;53.552;9.910;2023-04-24T10:12:49;14.20;99.90
21712;DHT22;11017;53.552;9.910;2023-04-24T10:15:18;14.10;99.90
21712;DHT22;11017;53.552;9.910;2023-04-24T10:17:48;14.00;99.90
21712;DHT22;11017;53.552;9.910;2023-04-24T10:20:18;14.10;99.90
21712;DHT22;11017;53.552;9.910;2023-04-24T10:22:48;14.00;99.90
21712;DHT22;11017;53.552;9.910;2023-04-24T10:25:19;13.90;99.90
21712;DHT22;11017;53.552;9.910;2023-04-24T10:27:48;14.10;99.90
21712;DHT22;11017;53.552;9.910;2023-04-24T10:30:16;14.20;99.90
21712;DHT22;11017;53.552;9.910;2023-04-24T10:32:43;14.20;99.90
21712;DHT22;11017;53.552;9.910;2023-04-24T10:35:12;14.20;99.90
21712;DHT22;11017;53.552;9.910;2023-04-24T10:37:43;14.40;99.90
21712;DHT22;11017;53.552;9.910;2023-04-24T10:40:11;14.50;99.90
21712;DHT22;11017;53.552;9.910;2023-04-24T10:42:47;14.30;99.90
21712;DHT22;11017;53.552;9.910;2023-04-24T10:45:18;14.40;99.90
21712;DHT22;11017;53.552;9.910;2023-04-24T10:48:01;14.20;99.90
21712;DHT22;11017;53.552;9.910;2023-04-24T10:50:29;14.20;99.90
21712;DHT22;11017;53.552;9.910;2023-04-24T10:53:06;14.30;99.90
21712;DHT22;11017;53.552;9.910;2023-04-24T10:55:44;14.40;99.90
21712;DHT22;11017;53.552;9.910;2023-04-24T10:58:12;14.30;99.90
21712;DHT22;11017;53.552;9.910;2023-04-24T11:00:41;14.20;99.90
21712;DHT22;11017;53.552;9.910;2023-04-24T11:03:24;14.10;99.90
21712;DHT22;11017;53.552;9.910;2023-04-24T11:05:53;14.20;99.90
21712;DHT22;11017;53.552;9.910;2023-04-24T11:08:24;14.30;99.90
21712;DHT22;11017;53.552;9.910;2023-04-24T11:10:57;14.30;99.90
21712;DHT22;11017;53.552;9.910;2023-04-24T11:13:27;14.50;99.90
21712;DHT22;11017;53.552;9.910;2023-04-24T11:16:20;14.40;99.90
21712;DHT22;11017;53.552;9.910;2023-04-24T11:18:51;14.70;99.90
21712;DHT22;11017;53.552;9.910;2023-04-24T11:21:19;14.70;99.90
21712;DHT22;11017;53.552;9.910;2023-04-24T11:23:47;14.80;99.90
21712;DHT22;11017;53.552;9.910;2023-04-24T11:26:18;14.80;99.90
21712;DHT22;11017;53.552;9.910;2023-04-24T11:28:48;15.00;99.90
21712;DHT22;11017;53.552;9.910;2023-04-24T11:31:34;15.00;99.90
21712;DHT22;11017;53.552;9.910;2023-04-24T11:34:09;15.00;99.90
21712;DHT22;11017;53.552;9.910;2023-04-24T11:36:36;15.00;99.90
21712;DHT22;11017;53.552;9.910;2023-04-24T11:39:04;15.00;99.90
21712;DHT22;11017;53.552;9.910;2023-04-24T11:41:31;14.70;99.90
21712;DHT22;11017;53.552;9.910;2023-04-24T11:43:59;14.60;99.90
21712;DHT22;11017;53.552;9.910;2023-04-24T11:46:28;14.60;99.90
21712;DHT22;11017;53.552;9.910;2023-04-24T11:48:57;14.40;99.90
21712;DHT22;11017;53.552;9.910;2023-04-24T11:51:25;14.60;99.90
21712;DHT22;11017;53.552;9.910;2023-04-24T11:53:53;14.60;99.90
21712;DHT22;11017;53.552;9.910;2023-04-24T11:56:21;14.60;99.90
21712;DHT22;11017;53.552;9.910;2023-04-24T11:58:48;14.60;99.90
21712;DHT22;11017;53.552;9.910;2023-04-24T12:01:19;15.20;99.90
21712;DHT22;11017;53.552;9.910;2023-04-24T12:03:48;15.40;99.90
21712;DHT22;11017;53.552;9.910;2023-04-24T12:06:16;15.30;99.90
21712;DHT22;11017;53.552;9.910;2023-04-24T12:08:46;15.00;99.90
21712;DHT22;11017;53.552;9.910;2023-04-24T12:11:15;14.90;99.90
21712;DHT22;11017;53.552;9.910;2023-04-24T12:13:44;14.50;99.90
21712;DHT22;11017;53.552;9.910;2023-04-24T12:16:11;14.50;99.90
21712;DHT22;11017;53.552;9.910;2023-04-24T12:18:44;14.50;99.90
21712;DHT22;11017;53.552;9.910;2023-04-24T12:21:18;14.40;99.90
21712;DHT22;11017;53.552;9.910;2023-04-24T12:23:46;14.50;99.90
21712;DHT22;11017;53.552;9.910;2023-04-24T12:26:16;14.40;99.90
21712;DHT22;11017;53.552;9.910;2023-04-24T12:28:47;14.10;99.90
21712;DHT22;11017;53.552;9.910;2023-04-24T12:31:15;13.90;99.90
21712;DHT22;11017;53.552;9.910;2023-04-24T12:33:42;13.90;99.90
21712;DHT22;11017;53.552;9.910;2023-04-24T12:36:11;13.90;99.90
21712;DHT22;11017;53.552;9.910;2023-04-24T12:38:43;14.00;99.90
21712;DHT22;11017;53.552;9.910;2023-04-24T12:41:13;14.00;99.90
21712;DHT22;11017;53.552;9.910;2023-04-24T12:43:51;13.90;99.90
21712;DHT22;11017;53.552;9.910;2023-04-24T12:46:18;14.00;99.90
21712;DHT22;11017;53.552;9.910;2023-04-24T12:48:45;14.10;99.90
21712;DHT22;11017;53.552;9.910;2023-04-24T12:51:13;13.80;99.90
21712;DHT22;11017;53.552;9.910;2023-04-24T12:53:40;13.70;99.90
21712;DHT22;11017;53.552;9.910;2023-04-24T12:56:07;13.70;99.90
21712;DHT22;11017;53.552;9.910;2023-04-24T12:58:34;13.70;99.90
21712;DHT22;11017;53.552;9.910;2023-04-24T13:01:01;13.60;99.90
21712;DHT22;11017;53.552;9.910;2023-04-24T13:03:28;13.70;99.90
21712;DHT22;11017;53.552;9.910;2023-04-24T13:05:55;13.60;99.90
21712;DHT22;11017;53.552;9.910;2023-04-24T13:08:23;13.50;99.90
21712;DHT22;11017;53.552;9.910;2023-04-24T13:10:50;13.40;99.90
21712;DHT22;11017;53.552;9.910;2023-04-24T13:13:19;13.50;99.90
21712;DHT22;11017;53.552;9.910;2023-04-24T13:15:46;13.70;99.90
21712;DHT22;11017;53.552;9.910;2023-04-24T13:18:13;13.70;99.90
21712;DHT22;11017;53.552;9.910;2023-04-24T13:20:40;13.60;99.90
21712;DHT22;11017;53.552;9.910;2023-04-24T13:23:07;13.60;99.90
21712;DHT22;11017;53.552;9.910;2023-04-24T13:25:36;13.50;99.90
21712;DHT22;11017;53.552;9.910;2023-04-24T13:28:04;13.60;99.90
21712;DHT22;11017;53.552;9.910;2023-04-24T13:30:31;13.80;99.90
21712;DHT22;11017;53.552;9.910;2023-04-24T13:32:58;13.70;99.90
21712;DHT22;11017;53.552;9.910;2023-04-24T13:35:25;13.70;99.90
21712;DHT22;11017;53.552;9.910;2023-04-24T13:37:52;13.60;99.90
21712;DHT22;11017;53.552;9.910;2023-04-24T13:40:19;13.40;99.90
21712;DHT22;11017;53.552;9.910;2023-04-24T13:42:47;13.50;99.90
21712;DHT22;11017;53.552;9.910;2023-04-24T13:45:14;13.60;99.90
21712;DHT22;11017;53.552;9.910;2023-04-24T13:47:41;13.90;99.90
21712;DHT22;11017;53.552;9.910;2023-04-24T13:50:09;13.90;99.90
21712;DHT22;11017;53.552;9.910;2023-04-24T13:52:36;14.20;99.90
21712;DHT22;11017;53.552;9.910;2023-04-24T13:55:03;14.40;99.90
21712;DHT22;11017;53.552;9.910;2023-04-24T13:57:30;14.30;99.90
21712;DHT22;11017;53.552;9.910;2023-04-24T13:59:59;13.90;99.90
21712;DHT22;11017;53.552;9.910;2023-04-24T14:02:29;13.90;99.90
21712;DHT22;11017;53.552;9.910;2023-04-24T14:04:56;13.70;99.90
21712;DHT22;11017;53.552;9.910;2023-04-24T14:07:24;13.60;99.90
21712;DHT22;11017;53.552;9.910;2023-04-24T14:09:51;13.80;99.90
21712;DHT22;11017;53.552;9.910;2023-04-24T14:12:18;13.70;99.90
21712;DHT22;11017;53.552;9.910;2023-04-24T14:14:46;13.50;99.90
21712;DHT22;11017;53.552;9.910;2023-04-24T14:17:15;13.60;99.90
21712;DHT22;11017;53.552;9.910;2023-04-24T14:19:42;13.30;99.90
21712;DHT22;11017;53.552;9.910;2023-04-24T14:22:10;13.30;99.90
21712;DHT22;11017;53.552;9.910;2023-04-24T14:24:37;13.30;99.90
21712;DHT22;11017;53.552;9.910;2023-04-24T14:27:04;13.30;99.90
21712;DHT22;11017;53.552;9.910;2023-04-24T14:29:30;13.20;99.90
21712;DHT22;11017;53.552;9.910;2023-04-24T14:31:57;13.00;99.90
21712;DHT22;11017;53.552;9.910;2023-04-24T14:34:26;12.60;99.90
21712;DHT22;11017;53.552;9.910;2023-04-24T14:36:53;12.30;99.90
21712;DHT22;11017;53.552;9.910;2023-04-24T14:39:20;11.90;99.90
21712;DHT22;11017;53.552;9.910;2023-04-24T14:41:47;11.80;99.90
21712;DHT22;11017;53.552;9.910;2023-04-24T14:44:14;11.80;99.90
21712;DHT22;11017;53.552;9.910;2023-04-24T14:46:41;11.70;99.90
21712;DHT22;11017;53.552;9.910;2023-04-24T14:49:08;11.60;99.90
21712;DHT22;11017;53.552;9.910;2023-04-24T14:51:38;11.50;99.90
21712;DHT22;11017;53.552;9.910;2023-04-24T14:54:06;11.60;99.90
21712;DHT22;11017;53.552;9.910;2023-04-24T14:56:33;11.80;99.90
21712;DHT22;11017;53.552;9.910;2023-04-24T14:59:00;11.80;99.90
21712;DHT22;11017;53.552;9.910;2023-04-24T15:01:26;11.60;99.90
21712;DHT22;11017;53.552;9.910;2023-04-24T15:03:53;11.30;99.90
21712;DHT22;11017;53.552;9.910;2023-04-24T15:06:20;11.30;99.90
21712;DHT22;11017;53.552;9.910;2023-04-24T15:08:48;11.50;99.90
21712;DHT22;11017;53.552;9.910;2023-04-24T15:11:15;11.60;99.90
21712;DHT22;11017;53.552;9.910;2023-04-24T15:13:42;11.30;99.90
21712;DHT22;11017;53.552;9.910;2023-04-24T15:16:10;11.20;99.90
21712;DHT22;11017;53.552;9.910;2023-04-24T15:18:37;10.90;99.90
21712;DHT22;11017;53.552;9.910;2023-04-24T15:21:04;10.90;99.90
21712;DHT22;11017;53.552;9.910;2023-04-24T15:23:31;10.90;99.90
21712;DHT22;11017;53.552;9.910;2023-04-24T15:25:59;10.70;99.90
21712;DHT22;11017;53.552;9.910;2023-04-24T15:28:28;10.80;99.90
21712;DHT22;11017;53.552;9.910;2023-04-24T15:30:57;10.80;99.90
21712;DHT22;11017;53.552;9.910;2023-04-24T15:33:24;10.90;99.90
21712;DHT22;11017;53.552;9.910;2023-04-24T15:35:51;11.00;99.90